createdAt,value
2017-02-28T00:00:12.762Z,987.09
2017-02-28T00:01:22.640Z,987.03
2017-02-28T00:02:33.477Z,986.99
2017-02-28T00:03:44.146Z,987
2017-02-28T00:04:54.439Z,986.86
2017-02-28T00:06:04.696Z,986.84
2017-02-28T00:07:15.010Z,986.81
2017-02-28T00:08:25.852Z,986.8
2017-02-28T00:09:36.109Z,986.71
2017-02-28T00:10:46.380Z,986.63
2017-02-28T00:11:57.059Z,986.63
2017-02-28T00:13:07.733Z,986.58
2017-02-28T00:14:17.784Z,986.63
2017-02-28T00:15:27.666Z,986.5
2017-02-28T00:16:37.923Z,986.49
2017-02-28T00:17:48.575Z,986.74
2017-02-28T00:18:58.847Z,986.86
2017-02-28T00:20:09.684Z,986.91
2017-02-28T00:21:19.189Z,987.01
2017-02-28T00:22:29.447Z,986.9
2017-02-28T00:23:40.113Z,986.84
2017-02-28T00:24:50.792Z,986.83
2017-02-28T00:26:01.168Z,986.79
2017-02-28T00:27:11.454Z,986.78
2017-02-28T00:28:20.954Z,986.76
2017-02-28T00:29:30.830Z,986.78
2017-02-28T00:30:41.110Z,986.81
2017-02-28T00:31:51.474Z,986.78
2017-02-28T00:33:01.763Z,986.7
2017-02-28T00:34:12.450Z,986.71
2017-02-28T00:35:23.101Z,986.71
2017-02-28T00:36:33.752Z,986.72
2017-02-28T00:37:44.211Z,986.76
2017-02-28T00:38:54.493Z,986.8
2017-02-28T00:40:05.171Z,986.79
2017-02-28T00:41:15.827Z,986.75
2017-02-28T00:42:26.126Z,986.77
2017-02-28T00:43:36.893Z,986.74
2017-02-28T00:44:47.161Z,986.7
2017-02-28T00:45:57.859Z,986.65
2017-02-28T00:47:07.737Z,986.6
2017-02-28T00:48:18.413Z,986.44
2017-02-28T00:49:29.169Z,986.46
2017-02-28T00:50:39.842Z,986.4
2017-02-28T00:51:50.103Z,986.33
2017-02-28T00:53:00.749Z,986.36
2017-02-28T00:54:11.060Z,986.35
2017-02-28T00:55:20.652Z,986.33
2017-02-28T00:56:31.315Z,986.35
2017-02-28T00:57:41.584Z,986.53
2017-02-28T00:58:51.865Z,986.68
2017-02-28T01:00:02.148Z,986.76
2017-02-28T01:01:13.004Z,986.74
2017-02-28T01:02:23.302Z,986.78
2017-02-28T01:03:33.585Z,986.77
2017-02-28T01:04:44.246Z,986.83
2017-02-28T01:05:54.527Z,986.79
2017-02-28T01:07:04.939Z,986.82
2017-02-28T01:08:15.501Z,986.79
2017-02-28T01:09:26.156Z,986.74
2017-02-28T01:10:36.812Z,986.82
2017-02-28T01:11:47.489Z,986.74
2017-02-28T01:12:57.905Z,986.79
2017-02-28T01:14:08.637Z,986.75
2017-02-28T01:15:18.927Z,986.7
2017-02-28T01:16:29.614Z,986.73
2017-02-28T01:17:39.892Z,986.58
2017-02-28T01:18:50.713Z,986.59
2017-02-28T01:20:01.004Z,986.66
2017-02-28T01:21:11.267Z,986.75
2017-02-28T01:22:21.544Z,986.85
2017-02-28T01:23:31.430Z,986.9
2017-02-28T01:24:41.862Z,986.84
2017-02-28T01:25:52.150Z,986.88
2017-02-28T01:27:02.442Z,986.81
2017-02-28T01:28:12.331Z,986.72
2017-02-28T01:29:22.610Z,986.68
2017-02-28T01:30:33.043Z,986.65
2017-02-28T01:31:43.311Z,986.66
2017-02-28T01:32:53.991Z,986.65
2017-02-28T01:34:04.688Z,986.77
2017-02-28T01:35:15.347Z,986.87
2017-02-28T01:36:25.790Z,986.88
2017-02-28T01:37:36.439Z,986.76
2017-02-28T01:38:46.708Z,986.89
2017-02-28T01:39:57.007Z,987.07
2017-02-28T01:41:06.506Z,987.12
2017-02-28T01:42:16.554Z,987.04
2017-02-28T01:43:25.687Z,986.98
2017-02-28T01:44:36.369Z,987.03
2017-02-28T01:45:47.041Z,986.95
2017-02-28T01:46:57.349Z,987
2017-02-28T01:48:08.188Z,986.92
2017-02-28T01:49:18.869Z,986.91
2017-02-28T01:50:29.142Z,987.09
2017-02-28T01:51:39.404Z,987.05
2017-02-28T01:52:49.701Z,987.07
2017-02-28T01:54:00.511Z,987.24
2017-02-28T01:55:11.186Z,987.28
2017-02-28T01:56:21.838Z,987.31
2017-02-28T01:57:32.107Z,987.38
2017-02-28T01:58:42.759Z,987.35
2017-02-28T01:59:53.572Z,987.32
2017-02-28T02:01:03.446Z,987.23
2017-02-28T02:02:13.727Z,987.14
2017-02-28T02:03:24.015Z,987.32
2017-02-28T02:04:34.969Z,987.43
2017-02-28T02:05:45.397Z,987.48
2017-02-28T02:06:56.054Z,987.33
2017-02-28T02:08:06.729Z,987.32
2017-02-28T02:09:17.010Z,987.33
2017-02-28T02:10:27.278Z,987.31
2017-02-28T02:11:38.094Z,987.47
2017-02-28T02:12:48.368Z,987.33
2017-02-28T02:13:58.642Z,987.28
2017-02-28T02:15:09.327Z,987.38
2017-02-28T02:16:19.245Z,987.38
2017-02-28T02:17:28.886Z,987.31
2017-02-28T02:18:39.539Z,987.23
2017-02-28T02:19:49.824Z,987.28
2017-02-28T02:21:00.477Z,987.33
2017-02-28T02:22:11.145Z,987.32
2017-02-28T02:23:21.971Z,987.22
2017-02-28T02:24:32.248Z,987.16
2017-02-28T02:25:42.525Z,987.2
2017-02-28T02:26:53.189Z,987.24
2017-02-28T02:28:03.069Z,987.3
2017-02-28T02:29:13.818Z,987.3
2017-02-28T02:30:24.479Z,987.38
2017-02-28T02:31:34.400Z,987.4
2017-02-28T02:32:44.680Z,987.44
2017-02-28T02:33:55.368Z,987.38
2017-02-28T02:35:06.144Z,987.35
2017-02-28T02:36:16.803Z,987.32
2017-02-28T02:37:27.070Z,987.3
2017-02-28T02:38:37.356Z,987.33
2017-02-28T02:39:47.630Z,987.34
2017-02-28T02:40:58.397Z,987.27
2017-02-28T02:42:09.051Z,987.26
2017-02-28T02:43:19.698Z,987.35
2017-02-28T02:44:30.370Z,987.35
2017-02-28T02:45:41.029Z,987.43
2017-02-28T02:46:51.824Z,987.42
2017-02-28T02:48:02.097Z,987.3
2017-02-28T02:49:11.990Z,987.25
2017-02-28T02:50:21.864Z,987.24
2017-02-28T02:51:31.735Z,987.17
2017-02-28T02:52:42.105Z,987.17
2017-02-28T02:53:52.777Z,987.16
2017-02-28T02:55:02.676Z,987.13
2017-02-28T02:56:13.343Z,987.16
2017-02-28T02:57:23.606Z,987.17
2017-02-28T02:58:34.012Z,987.16
2017-02-28T02:59:44.695Z,987.19
2017-02-28T03:00:54.989Z,987.21
2017-02-28T03:02:05.293Z,987.17
2017-02-28T03:03:15.573Z,987.15
2017-02-28T03:04:26.390Z,987.05
2017-02-28T03:05:37.092Z,987.04
2017-02-28T03:06:47.746Z,987.03
2017-02-28T03:07:58.304Z,987.03
2017-02-28T03:09:08.581Z,987.07
2017-02-28T03:10:18.991Z,987.05
2017-02-28T03:11:29.643Z,987.07
2017-02-28T03:12:39.917Z,987.15
2017-02-28T03:13:50.192Z,987.11
2017-02-28T03:15:00.078Z,987.12
2017-02-28T03:16:11.110Z,987.09
2017-02-28T03:17:21.796Z,987.09
2017-02-28T03:18:31.667Z,987.11
2017-02-28T03:19:41.969Z,987.08
2017-02-28T03:20:52.634Z,987.1
2017-02-28T03:22:02.661Z,987.09
2017-02-28T03:23:12.552Z,987.13
2017-02-28T03:24:22.063Z,987.02
2017-02-28T03:25:32.348Z,987.06
2017-02-28T03:26:42.225Z,986.98
2017-02-28T03:27:53.028Z,987.08
2017-02-28T03:29:03.685Z,987.04
2017-02-28T03:30:14.350Z,987.05
2017-02-28T03:31:24.608Z,987.09
2017-02-28T03:32:34.892Z,987.04
2017-02-28T03:33:45.332Z,987.05
2017-02-28T03:34:55.978Z,987.02
2017-02-28T03:36:06.269Z,986.95
2017-02-28T03:37:16.926Z,986.96
2017-02-28T03:38:27.597Z,986.92
2017-02-28T03:39:38.413Z,986.89
2017-02-28T03:40:48.690Z,986.87
2017-02-28T03:41:58.597Z,986.82
2017-02-28T03:43:08.087Z,986.84
2017-02-28T03:44:18.013Z,986.8
2017-02-28T03:45:28.442Z,986.85
2017-02-28T03:46:39.084Z,986.87
2017-02-28T03:47:49.348Z,986.87
2017-02-28T03:48:59.612Z,986.85
2017-02-28T03:50:10.278Z,986.83
2017-02-28T03:51:20.693Z,986.81
2017-02-28T03:52:30.974Z,986.84
2017-02-28T03:53:41.275Z,986.85
2017-02-28T03:54:50.796Z,986.77
2017-02-28T03:56:01.467Z,986.84
2017-02-28T03:57:11.216Z,986.89
2017-02-28T03:58:21.882Z,986.9
2017-02-28T03:59:32.158Z,986.84
2017-02-28T04:00:42.815Z,986.87
2017-02-28T04:01:53.120Z,986.91
2017-02-28T04:03:03.527Z,986.87
2017-02-28T04:04:14.208Z,986.82
2017-02-28T04:05:24.870Z,986.84
2017-02-28T04:06:35.172Z,986.94
2017-02-28T04:07:45.074Z,986.91
2017-02-28T04:08:55.879Z,986.94
2017-02-28T04:10:06.164Z,986.91
2017-02-28T04:11:16.821Z,986.91
2017-02-28T04:12:27.099Z,986.82
2017-02-28T04:13:37.744Z,986.8
2017-02-28T04:14:48.219Z,986.84
2017-02-28T04:15:58.506Z,986.81
2017-02-28T04:17:08.419Z,986.75
2017-02-28T04:18:18.676Z,986.75
2017-02-28T04:19:29.331Z,986.74
2017-02-28T04:20:40.229Z,986.78
2017-02-28T04:21:50.896Z,986.79
2017-02-28T04:23:01.195Z,986.76
2017-02-28T04:24:11.470Z,986.85
2017-02-28T04:25:22.120Z,986.82
2017-02-28T04:26:32.546Z,986.82
2017-02-28T04:27:43.229Z,986.86
2017-02-28T04:28:53.496Z,986.77
2017-02-28T04:30:03.404Z,986.82
2017-02-28T04:31:12.899Z,986.8
2017-02-28T04:32:22.538Z,986.78
2017-02-28T04:33:32.423Z,986.79
2017-02-28T04:34:43.101Z,986.79
2017-02-28T04:35:52.993Z,986.82
2017-02-28T04:37:03.677Z,986.82
2017-02-28T04:38:14.259Z,986.84
2017-02-28T04:39:24.832Z,986.88
2017-02-28T04:40:35.121Z,986.96
2017-02-28T04:41:45.023Z,986.92
2017-02-28T04:42:55.706Z,987
2017-02-28T04:44:06.284Z,987.03
2017-02-28T04:45:16.944Z,987.07
2017-02-28T04:46:26.813Z,987.05
2017-02-28T04:47:37.071Z,986.99
2017-02-28T04:48:47.753Z,986.98
2017-02-28T04:49:58.714Z,986.97
2017-02-28T04:51:08.222Z,987.01
2017-02-28T04:52:18.894Z,986.99
2017-02-28T04:53:29.166Z,987.02
2017-02-28T04:54:39.046Z,987.1
2017-02-28T04:55:49.434Z,987.11
2017-02-28T04:57:00.079Z,987.13
2017-02-28T04:58:10.747Z,987.21
2017-02-28T04:59:20.241Z,987.25
2017-02-28T05:00:30.629Z,987.32
2017-02-28T05:01:41.389Z,987.33
2017-02-28T05:02:52.047Z,987.34
2017-02-28T05:04:02.707Z,987.41
2017-02-28T05:05:12.610Z,987.39
2017-02-28T05:06:22.899Z,987.4
2017-02-28T05:07:33.259Z,987.5
2017-02-28T05:08:43.154Z,987.55
2017-02-28T05:09:53.445Z,987.52
2017-02-28T05:11:03.354Z,987.55
2017-02-28T05:12:14.018Z,987.59
2017-02-28T05:13:24.370Z,987.6
2017-02-28T05:14:35.036Z,987.63
2017-02-28T05:15:45.322Z,987.59
2017-02-28T05:16:55.627Z,987.63
2017-02-28T05:18:06.276Z,987.6
2017-02-28T05:19:17.040Z,987.68
2017-02-28T05:20:26.928Z,987.72
2017-02-28T05:21:37.191Z,987.7
2017-02-28T05:22:47.468Z,987.73
2017-02-28T05:23:58.141Z,987.68
2017-02-28T05:25:08.183Z,987.66
2017-02-28T05:26:17.695Z,987.57
2017-02-28T05:27:27.982Z,987.64
2017-02-28T05:28:38.293Z,987.63
2017-02-28T05:29:48.991Z,987.61
2017-02-28T05:30:59.254Z,987.62
2017-02-28T05:32:09.933Z,987.56
2017-02-28T05:33:20.225Z,987.6
2017-02-28T05:34:30.120Z,987.57
2017-02-28T05:35:40.391Z,987.66
2017-02-28T05:36:51.219Z,987.65
2017-02-28T05:38:01.496Z,987.63
2017-02-28T05:39:12.137Z,987.62
2017-02-28T05:40:23.094Z,987.66
2017-02-28T05:41:33.748Z,987.57
2017-02-28T05:42:44.155Z,987.66
2017-02-28T05:43:54.470Z,987.62
2017-02-28T05:45:04.372Z,987.59
2017-02-28T05:46:14.643Z,987.64
2017-02-28T05:47:25.316Z,987.67
2017-02-28T05:48:36.223Z,987.69
2017-02-28T05:49:46.490Z,987.72
2017-02-28T05:50:57.151Z,987.69
2017-02-28T05:52:07.828Z,987.7
2017-02-28T05:53:17.335Z,987.68
2017-02-28T05:54:27.769Z,987.76
2017-02-28T05:55:38.426Z,987.74
2017-02-28T05:56:48.718Z,987.83
2017-02-28T05:57:59.395Z,987.82
2017-02-28T05:59:10.066Z,987.87
2017-02-28T06:00:20.866Z,987.79
2017-02-28T06:01:30.738Z,987.87
2017-02-28T06:02:41.399Z,987.82
2017-02-28T06:03:51.698Z,987.91
2017-02-28T06:05:02.351Z,987.94
2017-02-28T06:06:13.153Z,987.9
2017-02-28T06:07:23.843Z,987.88
2017-02-28T06:08:34.143Z,987.97
2017-02-28T06:09:44.823Z,987.94
2017-02-28T06:10:54.730Z,987.94
2017-02-28T06:12:05.549Z,987.9
2017-02-28T06:13:15.452Z,987.93
2017-02-28T06:14:25.727Z,987.9
2017-02-28T06:15:36.380Z,987.95
2017-02-28T06:16:47.093Z,987.95
2017-02-28T06:17:56.725Z,987.98
2017-02-28T06:19:06.221Z,987.98
2017-02-28T06:20:16.906Z,987.97
2017-02-28T06:21:27.187Z,987.98
2017-02-28T06:22:37.864Z,987.93
2017-02-28T06:23:47.900Z,987.94
2017-02-28T06:24:58.557Z,988.02
2017-02-28T06:26:08.425Z,988.02
2017-02-28T06:27:18.307Z,988.02
2017-02-28T06:28:28.192Z,988
2017-02-28T06:29:39.011Z,988.01
2017-02-28T06:30:49.668Z,988.02
2017-02-28T06:32:00.323Z,988.03
2017-02-28T06:33:11.001Z,988
2017-02-28T06:34:20.883Z,988.06
2017-02-28T06:35:31.292Z,988
2017-02-28T06:36:41.577Z,988.06
2017-02-28T06:37:51.844Z,988.05
2017-02-28T06:39:02.501Z,988.06
2017-02-28T06:40:12.401Z,988.03
2017-02-28T06:41:22.449Z,987.96
2017-02-28T06:42:33.123Z,987.94
2017-02-28T06:43:43.797Z,988.04
2017-02-28T06:44:54.480Z,988.01
2017-02-28T06:46:04.388Z,988.02
2017-02-28T06:47:15.203Z,988.04
2017-02-28T06:48:25.899Z,988.1
2017-02-28T06:49:36.571Z,988.07
2017-02-28T06:50:47.244Z,988.08
2017-02-28T06:51:57.921Z,988.01
2017-02-28T06:53:08.357Z,988.14
2017-02-28T06:54:17.884Z,988.05
2017-02-28T06:55:27.448Z,988.03
2017-02-28T06:56:38.105Z,988.08
2017-02-28T06:57:48.415Z,988.11
2017-02-28T06:58:57.689Z,988.09
2017-02-28T07:00:08.869Z,988.14
2017-02-28T07:01:18.750Z,988.14
2017-02-28T07:02:28.648Z,988.1
2017-02-28T07:03:38.954Z,988.07
2017-02-28T07:04:49.338Z,988.07
2017-02-28T07:05:59.640Z,988.07
2017-02-28T07:07:10.324Z,988.08
2017-02-28T07:08:20.621Z,988.07
2017-02-28T07:09:30.901Z,988.06
2017-02-28T07:10:41.362Z,988.04
2017-02-28T07:11:52.017Z,988.03
2017-02-28T07:13:01.517Z,988.06
2017-02-28T07:14:12.211Z,988.1
2017-02-28T07:15:22.482Z,988.12
2017-02-28T07:16:32.890Z,988.03
2017-02-28T07:17:43.169Z,988.08
2017-02-28T07:18:53.066Z,988.09
2017-02-28T07:20:03.333Z,988.07
2017-02-28T07:21:13.900Z,988.06
2017-02-28T07:22:24.667Z,988.09
2017-02-28T07:23:35.338Z,988.09
2017-02-28T07:24:45.992Z,988.05
2017-02-28T07:25:56.306Z,987.99
2017-02-28T07:27:06.616Z,987.92
2017-02-28T07:28:16.632Z,987.97
2017-02-28T07:29:26.540Z,987.8
2017-02-28T07:30:37.193Z,987.94
2017-02-28T07:31:47.874Z,987.85
2017-02-28T07:32:58.175Z,987.87
2017-02-28T07:34:08.987Z,987.85
2017-02-28T07:35:19.282Z,987.86
2017-02-28T07:36:29.977Z,987.71
2017-02-28T07:37:40.311Z,987.91
2017-02-28T07:38:50.984Z,987.85
2017-02-28T07:40:01.424Z,987.92
2017-02-28T07:41:11.320Z,987.94
2017-02-28T07:42:21.239Z,987.96
2017-02-28T07:43:31.538Z,987.98
2017-02-28T07:44:42.225Z,988.02
2017-02-28T07:45:52.657Z,987.96
2017-02-28T07:47:03.384Z,987.96
2017-02-28T07:48:14.049Z,987.96
2017-02-28T07:49:24.735Z,987.95
2017-02-28T07:50:35.397Z,987.97
2017-02-28T07:51:46.215Z,987.95
2017-02-28T07:52:56.132Z,987.91
2017-02-28T07:54:06.429Z,987.95
2017-02-28T07:55:17.109Z,987.94
2017-02-28T07:56:27.383Z,987.94
2017-02-28T07:57:37.794Z,988
2017-02-28T07:58:47.731Z,987.95
2017-02-28T07:59:58.417Z,987.98
2017-02-28T08:01:09.098Z,987.9
2017-02-28T08:02:19.382Z,987.9
2017-02-28T08:03:29.805Z,987.9
2017-02-28T08:04:40.093Z,987.94
2017-02-28T08:05:50.760Z,987.96
2017-02-28T08:07:01.477Z,987.96
2017-02-28T08:08:11.777Z,988.06
2017-02-28T08:09:22.619Z,988.03
2017-02-28T08:10:32.130Z,988.02
2017-02-28T08:11:42.413Z,988.02
2017-02-28T08:12:52.703Z,987.94
2017-02-28T08:14:03.030Z,988.02
2017-02-28T08:15:13.081Z,987.9
2017-02-28T08:16:23.750Z,987.91
2017-02-28T08:17:33.287Z,987.93
2017-02-28T08:18:43.961Z,987.96
2017-02-28T08:19:54.135Z,987.99
2017-02-28T08:21:04.970Z,987.94
2017-02-28T08:22:15.657Z,987.9
2017-02-28T08:23:26.357Z,987.91
2017-02-28T08:24:36.279Z,987.9
2017-02-28T08:25:46.596Z,987.9
2017-02-28T08:26:57.427Z,987.81
2017-02-28T08:28:08.125Z,987.86
2017-02-28T08:29:18.408Z,987.87
2017-02-28T08:30:28.705Z,987.9
2017-02-28T08:31:38.213Z,987.92
2017-02-28T08:32:48.768Z,987.93
2017-02-28T08:33:59.444Z,987.9
2017-02-28T08:35:10.149Z,987.93
2017-02-28T08:36:20.461Z,987.93
2017-02-28T08:37:29.989Z,987.88
2017-02-28T08:38:40.447Z,987.85
2017-02-28T08:39:51.116Z,987.87
2017-02-28T08:41:01.377Z,987.88
2017-02-28T08:42:12.052Z,987.83
2017-02-28T08:43:21.930Z,987.9
2017-02-28T08:44:32.762Z,987.9
2017-02-28T08:45:43.436Z,987.9
2017-02-28T08:46:52.934Z,987.91
2017-02-28T08:48:03.310Z,987.85
2017-02-28T08:49:13.588Z,987.85
2017-02-28T08:50:24.398Z,987.82
2017-02-28T08:51:35.065Z,987.81
2017-02-28T08:52:45.330Z,987.81
2017-02-28T08:53:55.607Z,987.84
2017-02-28T08:55:05.918Z,987.88
2017-02-28T08:56:16.348Z,987.88
2017-02-28T08:57:26.623Z,987.86
2017-02-28T08:58:36.508Z,987.84
2017-02-28T08:59:47.168Z,987.8
2017-02-28T09:00:57.854Z,987.85
2017-02-28T09:02:07.520Z,987.81
2017-02-28T09:03:17.833Z,987.82
2017-02-28T09:04:27.718Z,987.83
2017-02-28T09:05:38.399Z,987.8
2017-02-28T09:06:48.673Z,987.76
2017-02-28T09:07:59.446Z,987.84
2017-02-28T09:09:09.724Z,987.79
2017-02-28T09:10:19.240Z,987.82
2017-02-28T09:11:29.920Z,987.69
2017-02-28T09:12:39.825Z,987.67
2017-02-28T09:13:50.247Z,987.69
2017-02-28T09:15:00.526Z,987.7
2017-02-28T09:16:10.817Z,987.64
2017-02-28T09:17:21.112Z,987.69
2017-02-28T09:18:31.792Z,987.69
2017-02-28T09:19:42.196Z,987.61
2017-02-28T09:20:53.305Z,987.66
2017-02-28T09:22:03.607Z,987.78
2017-02-28T09:23:14.221Z,987.68
2017-02-28T09:24:24.096Z,987.63
2017-02-28T09:25:34.895Z,987.67
2017-02-28T09:26:44.782Z,987.61
2017-02-28T09:27:55.467Z,987.68
2017-02-28T09:29:05.375Z,987.67
2017-02-28T09:30:15.669Z,987.69
2017-02-28T09:31:26.065Z,987.58
2017-02-28T09:32:36.361Z,987.71
2017-02-28T09:33:47.026Z,987.71
2017-02-28T09:34:57.711Z,987.8
2017-02-28T09:36:07.988Z,987.75
2017-02-28T09:37:18.431Z,987.69
2017-02-28T09:38:28.712Z,987.67
2017-02-28T09:39:38.607Z,987.76
2017-02-28T09:40:49.268Z,987.86
2017-02-28T09:41:58.762Z,987.83
2017-02-28T09:43:08.798Z,987.81
2017-02-28T09:44:19.457Z,987.87
2017-02-28T09:45:29.758Z,987.85
2017-02-28T09:46:40.055Z,987.91
2017-02-28T09:47:49.939Z,987.91
2017-02-28T09:49:00.407Z,987.86
2017-02-28T09:50:09.911Z,987.86
2017-02-28T09:51:20.170Z,987.74
2017-02-28T09:52:30.811Z,987.78
2017-02-28T09:53:41.467Z,987.69
2017-02-28T09:54:51.499Z,987.6
2017-02-28T09:56:01.800Z,987.74
2017-02-28T09:57:11.674Z,987.73
2017-02-28T09:58:21.962Z,987.73
2017-02-28T09:59:31.875Z,987.9
2017-02-28T10:00:41.918Z,987.83
2017-02-28T10:01:52.241Z,987.77
2017-02-28T10:03:02.520Z,987.69
2017-02-28T10:04:12.810Z,987.66
2017-02-28T10:05:23.118Z,987.74
2017-02-28T10:06:33.573Z,987.74
2017-02-28T10:07:43.537Z,987.79
2017-02-28T10:08:53.840Z,987.69
2017-02-28T10:10:03.791Z,987.56
2017-02-28T10:11:14.221Z,987.67
2017-02-28T10:12:25.033Z,987.7
2017-02-28T10:13:35.330Z,987.66
2017-02-28T10:14:45.913Z,987.57
2017-02-28T10:15:55.827Z,987.59
2017-02-28T10:17:06.493Z,987.62
2017-02-28T10:18:17.263Z,987.62
2017-02-28T10:19:27.934Z,987.54
2017-02-28T10:20:38.199Z,987.5
2017-02-28T10:21:48.480Z,987.5
2017-02-28T10:22:59.159Z,987.65
2017-02-28T10:24:10.205Z,987.49
2017-02-28T10:25:19.303Z,987.47
2017-02-28T10:26:29.606Z,987.5
2017-02-28T10:27:39.890Z,987.46
2017-02-28T10:28:49.394Z,987.5
2017-02-28T10:30:00.215Z,987.33
2017-02-28T10:31:10.483Z,987.53
2017-02-28T10:32:20.748Z,987.5
2017-02-28T10:33:31.044Z,987.34
2017-02-28T10:34:41.366Z,987.35
2017-02-28T10:35:51.418Z,987.33
2017-02-28T10:37:01.702Z,987.36
2017-02-28T10:38:11.976Z,987.24
2017-02-28T10:39:22.643Z,987.13
2017-02-28T10:40:32.935Z,987.26
2017-02-28T10:41:44.046Z,987.24
2017-02-28T10:42:54.308Z,987.21
2017-02-28T10:44:04.592Z,987.09
2017-02-28T10:45:14.882Z,987.2
2017-02-28T10:46:25.157Z,987.04
2017-02-28T10:47:36.006Z,987.1
2017-02-28T10:48:45.942Z,987.07
2017-02-28T10:49:56.624Z,987.08
2017-02-28T10:51:06.511Z,987.03
2017-02-28T10:52:16.911Z,987.01
2017-02-28T10:53:27.082Z,986.94
2017-02-28T10:54:37.360Z,986.93
2017-02-28T10:55:47.300Z,986.99
2017-02-28T10:56:57.197Z,986.92
2017-02-28T10:58:07.074Z,986.96
2017-02-28T10:59:17.903Z,986.93
2017-02-28T11:00:27.790Z,986.91
2017-02-28T11:01:38.347Z,986.95
2017-02-28T11:02:48.238Z,986.94
2017-02-28T11:03:58.573Z,986.95
2017-02-28T11:05:09.028Z,986.98
2017-02-28T11:06:18.897Z,986.96
2017-02-28T11:07:29.556Z,987.03
2017-02-28T11:08:39.452Z,986.91
2017-02-28T11:09:49.747Z,986.93
2017-02-28T11:11:00.129Z,986.89
2017-02-28T11:12:10.404Z,986.85
2017-02-28T11:13:20.696Z,986.87
2017-02-28T11:14:31.445Z,986.93
2017-02-28T11:15:41.371Z,987.03
2017-02-28T11:16:51.756Z,986.81
2017-02-28T11:18:02.042Z,986.85
2017-02-28T11:19:12.733Z,986.74
2017-02-28T11:20:22.629Z,986.76
2017-02-28T11:21:32.917Z,986.67
2017-02-28T11:22:42.529Z,986.8
2017-02-28T11:23:53.196Z,986.77
2017-02-28T11:25:03.888Z,986.69
2017-02-28T11:26:14.165Z,986.76
2017-02-28T11:27:24.838Z,986.69
2017-02-28T11:28:34.443Z,986.82
2017-02-28T11:29:45.120Z,986.67
2017-02-28T11:30:55.398Z,986.63
2017-02-28T11:32:06.084Z,986.62
2017-02-28T11:33:16.755Z,986.66
2017-02-28T11:34:27.539Z,986.64
2017-02-28T11:35:38.443Z,986.71
2017-02-28T11:36:48.738Z,986.75
2017-02-28T11:37:58.668Z,986.67
2017-02-28T11:39:09.346Z,986.68
2017-02-28T11:40:19.793Z,986.66
2017-02-28T11:41:30.532Z,986.61
2017-02-28T11:42:41.211Z,986.59
2017-02-28T11:43:51.486Z,986.61
2017-02-28T11:45:02.180Z,986.62
2017-02-28T11:46:13.007Z,986.62
2017-02-28T11:47:23.292Z,986.59
2017-02-28T11:48:33.573Z,986.53
2017-02-28T11:49:43.836Z,986.5
2017-02-28T11:50:54.171Z,986.52
2017-02-28T11:52:05.293Z,986.44
2017-02-28T11:53:15.864Z,986.52
2017-02-28T11:54:25.375Z,986.53
2017-02-28T11:55:35.282Z,986.48
2017-02-28T11:56:45.993Z,986.53
2017-02-28T11:57:55.660Z,986.48
2017-02-28T11:59:05.576Z,986.53
2017-02-28T12:00:16.255Z,986.47
2017-02-28T12:01:26.543Z,986.52
2017-02-28T12:02:37.201Z,986.48
2017-02-28T12:03:47.196Z,986.52
2017-02-28T12:04:57.474Z,986.35
2017-02-28T12:06:07.743Z,986.46
2017-02-28T12:07:18.443Z,986.47
2017-02-28T12:08:28.714Z,986.33
2017-02-28T12:09:38.373Z,986.34
2017-02-28T12:10:49.029Z,986.31
2017-02-28T12:11:59.351Z,986.26
2017-02-28T12:13:09.668Z,986.25
2017-02-28T12:14:19.947Z,986.25
2017-02-28T12:15:31.363Z,986.23
2017-02-28T12:16:42.034Z,986.2
2017-02-28T12:17:52.715Z,986.19
2017-02-28T12:19:03.414Z,986.14
2017-02-28T12:20:13.685Z,986.17
2017-02-28T12:21:23.713Z,986.16
2017-02-28T12:22:34.403Z,986.08
2017-02-28T12:23:44.725Z,986.03
2017-02-28T12:24:55.428Z,986.01
2017-02-28T12:26:06.078Z,986.02
2017-02-28T12:27:16.932Z,985.99
2017-02-28T12:28:27.207Z,986.04
2017-02-28T12:29:37.863Z,986.04
2017-02-28T12:30:47.781Z,986.05
2017-02-28T12:31:58.078Z,985.99
2017-02-28T12:33:08.887Z,986.01
2017-02-28T12:34:19.538Z,985.99
2017-02-28T12:35:29.436Z,985.91
2017-02-28T12:36:39.732Z,985.94
2017-02-28T12:37:50.030Z,985.89
2017-02-28T12:39:00.858Z,985.85
2017-02-28T12:40:12.186Z,985.78
2017-02-28T12:41:23.061Z,985.79
2017-02-28T12:42:33.911Z,985.79
2017-02-28T12:43:43.779Z,985.73
2017-02-28T12:44:54.671Z,985.71
2017-02-28T12:46:04.981Z,985.66
2017-02-28T12:47:14.479Z,985.64
2017-02-28T12:48:24.378Z,985.61
2017-02-28T12:49:34.643Z,985.6
2017-02-28T12:50:44.276Z,985.61
2017-02-28T12:51:54.563Z,985.57
2017-02-28T12:53:04.068Z,985.54
2017-02-28T12:54:14.742Z,985.42
2017-02-28T12:55:25.438Z,985.43
2017-02-28T12:56:36.273Z,985.39
2017-02-28T12:57:46.939Z,985.41
2017-02-28T12:58:57.601Z,985.41
2017-02-28T13:00:08.256Z,985.34
2017-02-28T13:01:19.236Z,985.28
2017-02-28T13:02:29.265Z,985.28
2017-02-28T13:03:38.762Z,985.28
2017-02-28T13:04:49.455Z,985.26
2017-02-28T13:06:00.191Z,985.16
2017-02-28T13:07:10.451Z,985.09
2017-02-28T13:08:21.972Z,985.06
2017-02-28T13:09:32.238Z,985.05
2017-02-28T13:10:41.745Z,985.07
2017-02-28T13:11:52.397Z,985.06
2017-02-28T13:13:02.674Z,985
2017-02-28T13:14:13.116Z,985.02
2017-02-28T13:15:23.017Z,985
2017-02-28T13:16:33.329Z,985
2017-02-28T13:17:43.221Z,985.03
2017-02-28T13:18:53.128Z,984.99
2017-02-28T13:20:03.537Z,985.01
2017-02-28T13:21:13.821Z,985.02
2017-02-28T13:22:24.110Z,985
2017-02-28T13:23:34.787Z,984.96
2017-02-28T13:24:44.691Z,985.04
2017-02-28T13:25:54.748Z,985.02
2017-02-28T13:27:04.604Z,985
2017-02-28T13:28:15.291Z,984.99
2017-02-28T13:29:25.965Z,985.02
2017-02-28T13:30:35.472Z,984.97
2017-02-28T13:31:45.889Z,985.02
2017-02-28T13:32:56.165Z,985.04
2017-02-28T13:34:06.806Z,985.05
2017-02-28T13:36:59.683Z,985.07
2017-02-28T13:38:11.685Z,985.04
2017-02-28T13:39:21.962Z,985.04
2017-02-28T13:40:31.490Z,985.08
2017-02-28T13:41:42.143Z,985.1
2017-02-28T13:42:53.077Z,985.11
2017-02-28T13:44:03.743Z,985.1
2017-02-28T13:45:14.037Z,985.1
2017-02-28T13:46:24.713Z,985.09
2017-02-28T13:47:34.997Z,985.12
2017-02-28T13:48:44.900Z,985.11
2017-02-28T13:49:55.206Z,985.16
2017-02-28T13:51:05.497Z,985.1
2017-02-28T13:52:15.015Z,985.14
2017-02-28T13:53:25.301Z,985.1
2017-02-28T13:54:35.689Z,985.08
2017-02-28T13:55:45.585Z,985.1
2017-02-28T13:56:55.505Z,985.12
2017-02-28T13:58:05.778Z,985.04
2017-02-28T13:59:16.451Z,985.04
2017-02-28T14:00:26.889Z,985.01
2017-02-28T14:01:37.155Z,985.01
2017-02-28T14:02:47.048Z,985.03
2017-02-28T14:03:57.359Z,985.03
2017-02-28T14:05:07.631Z,984.97
2017-02-28T14:06:17.384Z,985
2017-02-28T14:07:28.058Z,984.95
2017-02-28T14:08:38.758Z,984.94
2017-02-28T14:09:49.449Z,985
2017-02-28T14:11:00.397Z,984.99
2017-02-28T14:12:10.830Z,984.96
2017-02-28T14:13:21.493Z,984.98
2017-02-28T14:14:31.387Z,984.95
2017-02-28T14:15:41.301Z,984.96
2017-02-28T14:16:51.983Z,984.98
2017-02-28T14:18:02.160Z,985.02
2017-02-28T14:19:12.469Z,984.97
2017-02-28T14:20:23.126Z,984.95
2017-02-28T14:21:33.020Z,984.98
2017-02-28T14:22:43.314Z,984.99
2017-02-28T14:23:53.140Z,984.97
2017-02-28T14:25:02.666Z,985
2017-02-28T14:26:12.990Z,985.04
2017-02-28T14:27:22.888Z,985.06
2017-02-28T14:28:33.568Z,985.13
2017-02-28T14:29:44.945Z,985.13
2017-02-28T14:30:55.288Z,985.09
2017-02-28T14:32:05.209Z,985.11
2017-02-28T14:33:15.863Z,985.16
2017-02-28T14:34:26.157Z,985.2
2017-02-28T14:35:35.749Z,985.22
2017-02-28T14:36:46.443Z,985.22
2017-02-28T14:37:57.108Z,985.21
2017-02-28T14:39:07.381Z,985.22
2017-02-28T14:40:18.062Z,985.23
2017-02-28T14:41:28.884Z,985.25
2017-02-28T14:42:39.181Z,985.19
2017-02-28T14:43:49.439Z,985.27